Time;durP1;ratioP1;P1;durP2;ratioP2;P2;SDS_P1;SDS_P2;PMS_P1;PMS_P2;Temp;Humidity;BMP_temperature;BMP_pressure;BME280_temperature;BME280_humidity;BME280_pressure;Samples;Min_cycle;Max_cycle;Signal;HPM_P1;HPM_P2
2022/09/11 00:01:43;;;;;;;9.83;8.47;;;13.80;99.90;;;;;;5114689;28;20208;-73
2022/09/11 00:04:10;;;;;;;8.97;7.47;;;13.70;99.90;;;;;;5107157;28;20202;-72
2022/09/11 00:06:38;;;;;;;9.27;7.30;;;13.70;99.90;;;;;;5108153;28;20239;-72
2022/09/11 00:09:06;;;;;;;9.23;7.57;;;13.70;99.90;;;;;;5110564;28;20364;-72
2022/09/11 00:11:35;;;;;;;9.80;7.53;;;13.70;99.90;;;;;;5118456;27;20204;-71
2022/09/11 00:14:03;;;;;;;9.27;7.03;;;13.70;99.90;;;;;;5131614;27;20211;-71
2022/09/11 00:16:34;;;;;;;7.60;6.90;;;13.70;99.90;;;;;;5119190;27;20207;-71
2022/09/11 00:19:03;;;;;;;14.13;6.90;;;13.70;99.90;;;;;;5114157;28;20556;-72
2022/09/11 00:21:30;;;;;;;8.23;6.80;;;13.60;99.90;;;;;;5106376;28;20652;-72
2022/09/11 00:23:57;;;;;;;7.23;6.40;;;13.70;99.90;;;;;;5112619;27;20212;-73
2022/09/11 00:26:25;;;;;;;7.47;6.60;;;13.70;99.90;;;;;;5114478;28;20208;-72
2022/09/11 00:28:52;;;;;;;8.90;6.87;;;13.70;99.90;;;;;;5102010;28;20208;-73
2022/09/11 00:31:22;;;;;;;8.00;6.50;;;13.70;99.90;;;;;;5113488;28;20210;-72
2022/09/11 00:33:50;;;;;;;8.63;6.13;;;13.60;99.90;;;;;;5103732;28;20223;-73
2022/09/11 00:36:19;;;;;;;8.20;6.47;;;13.60;99.90;;;;;;5109159;28;20533;-72
2022/09/11 00:38:47;;;;;;;10.37;7.03;;;13.60;99.90;;;;;;5112335;28;20200;-73
2022/09/11 00:41:16;;;;;;;7.63;6.60;;;13.60;99.90;;;;;;5113645;28;20554;-73
2022/09/11 00:44:01;;;;;;;9.03;6.90;;;13.50;99.90;;;;;;5118249;27;20200;-72
2022/09/11 00:46:36;;;;;;;7.53;6.50;;;13.50;99.90;;;;;;5106675;28;20647;-72
2022/09/11 00:49:15;;;;;;;9.13;7.60;;;13.50;99.90;;;;;;5112793;28;20511;-72
2022/09/11 00:51:46;;;;;;;8.37;6.60;;;13.40;99.90;;;;;;5110692;28;20208;-71
2022/09/11 00:54:14;;;;;;;8.43;6.60;;;13.40;99.90;;;;;;5112666;28;20204;-73
2022/09/11 00:56:42;;;;;;;8.90;6.53;;;13.30;99.90;;;;;;5112350;28;20208;-73
2022/09/11 00:59:10;;;;;;;8.43;7.27;;;13.30;99.90;;;;;;5111262;28;20224;-73
2022/09/11 01:01:37;;;;;;;9.07;7.17;;;13.30;99.90;;;;;;5112840;28;20199;-72
2022/09/11 01:04:07;;;;;;;8.27;7.07;;;13.30;99.90;;;;;;5103019;28;20203;-73
2022/09/11 01:06:34;;;;;;;7.73;6.77;;;13.30;99.90;;;;;;5117487;27;20327;-71
2022/09/11 01:09:01;;;;;;;10.93;7.87;;;13.30;99.90;;;;;;5114311;27;20204;-73
2022/09/11 01:11:41;;;;;;;9.37;7.03;;;13.30;99.90;;;;;;5104295;28;20219;-73
2022/09/11 01:14:17;;;;;;;9.60;7.67;;;13.30;99.90;;;;;;5109393;27;20293;-73
2022/09/11 01:16:53;;;;;;;8.70;7.00;;;13.20;99.90;;;;;;5109425;28;20210;-72
2022/09/11 01:19:37;;;;;;;7.67;6.87;;;13.30;99.90;;;;;;5113642;27;20199;-72
2022/09/11 01:22:38;;;;;;;7.90;6.93;;;13.20;99.90;;;;;;5104062;27;20224;-73
2022/09/11 01:25:16;;;;;;;8.47;7.57;;;13.20;99.90;;;;;;5111812;28;20212;-73
2022/09/11 01:27:49;;;;;;;11.10;7.83;;;13.20;99.90;;;;;;5110748;28;20199;-71
2022/09/11 01:30:17;;;;;;;7.50;6.73;;;13.30;99.90;;;;;;5112619;28;20212;-72
2022/09/11 01:32:59;;;;;;;8.67;7.77;;;13.30;99.90;;;;;;5121222;27;20203;-72
2022/09/11 01:35:33;;;;;;;8.30;7.43;;;13.30;99.90;;;;;;5109314;28;20507;-73
2022/09/11 01:38:05;;;;;;;7.70;6.90;;;13.20;99.90;;;;;;5112203;28;20663;-72
2022/09/11 01:40:38;;;;;;;9.03;7.30;;;13.30;99.90;;;;;;5112873;28;20533;-72
2022/09/11 01:43:12;;;;;;;9.37;7.63;;;13.30;99.90;;;;;;5111864;27;20696;-73
2022/09/11 01:45:42;;;;;;;9.57;7.90;;;13.30;99.90;;;;;;5108845;28;20282;-72
2022/09/11 01:48:11;;;;;;;8.70;7.80;;;13.30;99.90;;;;;;5109979;28;20208;-73
2022/09/11 01:50:41;;;;;;;8.77;7.87;;;13.30;99.90;;;;;;5111776;28;20215;-72
2022/09/11 01:53:11;;;;;;;9.37;8.47;;;13.30;99.90;;;;;;5107059;28;20216;-72
2022/09/11 01:55:42;;;;;;;10.20;8.17;;;13.30;99.90;;;;;;5110458;28;20200;-72
2022/09/11 01:58:14;;;;;;;9.50;8.33;;;13.30;99.90;;;;;;5113382;27;20208;-72
2022/09/11 02:00:45;;;;;;;11.17;9.13;;;13.30;99.90;;;;;;5111409;28;20192;-73
2022/09/11 02:03:18;;;;;;;9.27;8.30;;;13.30;99.90;;;;;;5107685;27;20726;-72
2022/09/11 02:05:49;;;;;;;10.63;9.23;;;13.30;99.90;;;;;;5109752;27;20207;-73
2022/09/11 02:08:20;;;;;;;9.57;8.50;;;13.30;99.90;;;;;;5102057;28;20207;-71
2022/09/11 02:10:52;;;;;;;9.43;8.43;;;13.30;99.90;;;;;;5111126;28;20223;-72
2022/09/11 02:13:24;;;;;;;10.50;9.40;;;13.30;99.90;;;;;;5109028;28;20582;-72
2022/09/11 02:15:57;;;;;;;11.17;9.63;;;13.30;99.90;;;;;;5109794;28;20562;-73
2022/09/11 02:18:27;;;;;;;11.43;10.07;;;13.30;99.90;;;;;;5109838;28;20203;-73
2022/09/11 02:20:54;;;;;;;11.10;9.73;;;13.30;99.90;;;;;;5106921;28;20192;-72
2022/09/11 02:23:21;;;;;;;10.90;9.80;;;13.30;99.90;;;;;;5110300;28;20731;-72
2022/09/11 02:25:48;;;;;;;12.47;10.37;;;13.20;99.90;;;;;;5112467;28;20882;-71
2022/09/11 02:28:16;;;;;;;11.20;9.77;;;13.20;99.90;;;;;;5110167;28;20214;-72
2022/09/11 02:30:45;;;;;;;12.53;10.07;;;13.30;99.90;;;;;;5111373;28;20231;-72
2022/09/11 02:33:29;;;;;;;9.87;8.90;;;13.30;99.90;;;;;;5105210;28;20234;-72
2022/09/11 02:36:12;;;;;;;12.30;10.30;;;13.30;99.90;;;;;;5096138;28;20575;-71
2022/09/11 02:38:52;;;;;;;13.67;10.13;;;13.30;99.90;;;;;;5107398;28;20199;-71
2022/09/11 02:41:27;;;;;;;11.80;10.33;;;13.30;99.90;;;;;;5106530;28;20207;-72
2022/09/11 02:44:03;;;;;;;13.90;10.30;;;13.30;99.90;;;;;;5119108;28;20681;-72
2022/09/11 02:46:48;;;;;;;12.03;9.80;;;13.30;99.90;;;;;;5106883;28;20204;-72
2022/09/11 02:49:23;;;;;;;12.10;10.07;;;13.20;99.90;;;;;;5107918;28;20204;-71
2022/09/11 02:52:00;;;;;;;12.20;10.03;;;13.30;99.90;;;;;;5097119;28;20592;-71
2022/09/11 02:54:34;;;;;;;11.37;9.97;;;13.30;99.90;;;;;;5108600;28;20652;-70
2022/09/11 02:57:06;;;;;;;11.67;9.80;;;13.30;99.90;;;;;;5105821;28;20237;-71
2022/09/11 02:59:37;;;;;;;11.13;9.40;;;13.30;99.90;;;;;;5123195;28;20664;-72
2022/09/11 03:02:11;;;;;;;13.03;9.70;;;13.20;99.90;;;;;;5108599;28;20200;-73
2022/09/11 03:04:38;;;;;;;9.63;8.33;;;13.20;99.90;;;;;;5109290;28;20242;-73
2022/09/11 03:07:05;;;;;;;9.37;8.37;;;13.20;99.90;;;;;;5098881;28;20252;-72
2022/09/11 03:09:33;;;;;;;9.77;8.50;;;13.20;99.90;;;;;;5105245;28;20675;-73
2022/09/11 03:12:00;;;;;;;10.00;8.07;;;13.20;99.90;;;;;;5108001;28;20555;-72
2022/09/11 03:14:27;;;;;;;9.47;7.77;;;13.20;99.90;;;;;;5120837;27;20211;-72
2022/09/11 03:16:55;;;;;;;8.80;7.17;;;13.20;99.90;;;;;;5099805;27;20204;-72
2022/09/11 03:19:23;;;;;;;11.43;7.23;;;13.20;99.90;;;;;;5115704;27;20221;-73
2022/09/11 03:21:50;;;;;;;9.33;7.73;;;13.20;99.90;;;;;;5109089;27;20227;-72
2022/09/11 03:24:17;;;;;;;8.23;7.30;;;13.10;99.90;;;;;;5113575;28;20216;-71
2022/09/11 03:26:44;;;;;;;8.57;6.50;;;13.10;99.90;;;;;;5108238;28;20208;-71
2022/09/11 03:29:11;;;;;;;8.93;7.13;;;13.10;99.90;;;;;;5112273;28;20214;-71
2022/09/11 03:31:38;;;;;;;9.27;7.23;;;13.10;99.90;;;;;;5125014;27;20230;-71
2022/09/11 03:34:05;;;;;;;9.70;7.00;;;13.10;99.90;;;;;;5113513;28;20210;-72
2022/09/11 03:36:34;;;;;;;8.47;6.67;;;13.10;99.90;;;;;;5107997;28;20775;-72
2022/09/11 03:39:00;;;;;;;8.03;6.67;;;13.10;99.90;;;;;;5112636;28;20284;-72
2022/09/11 03:41:27;;;;;;;6.93;6.23;;;13.10;99.90;;;;;;5112323;28;20219;-71
2022/09/11 03:43:54;;;;;;;7.77;6.77;;;13.10;99.90;;;;;;5114602;27;20214;-72
2022/09/11 03:46:21;;;;;;;7.37;6.57;;;13.10;99.90;;;;;;5108563;28;20211;-72
2022/09/11 03:48:48;;;;;;;8.43;6.50;;;13.10;99.90;;;;;;5108269;28;20291;-72
2022/09/11 03:51:16;;;;;;;8.33;6.50;;;13.10;99.90;;;;;;5104760;28;20224;-72
2022/09/11 03:53:44;;;;;;;7.87;6.70;;;13.00;99.90;;;;;;5112201;28;20208;-73
2022/09/11 03:56:13;;;;;;;7.40;6.60;;;13.00;99.90;;;;;;5109663;28;20679;-71
2022/09/11 03:58:40;;;;;;;8.53;6.63;;;13.00;99.90;;;;;;5108447;28;20280;-71
2022/09/11 04:01:12;;;;;;;10.27;7.00;;;13.00;99.90;;;;;;5110741;28;20210;-71
2022/09/11 04:03:39;;;;;;;7.93;6.63;;;13.00;99.90;;;;;;5112319;28;20304;-71
2022/09/11 04:06:07;;;;;;;8.00;7.03;;;13.00;99.90;;;;;;5111055;28;20906;-71
2022/09/11 04:08:34;;;;;;;9.27;7.30;;;13.00;99.90;;;;;;5112536;28;20207;-73
2022/09/11 04:11:04;;;;;;;9.57;7.57;;;13.00;99.90;;;;;;5111249;28;20215;-71
2022/09/11 04:13:33;;;;;;;7.70;6.93;;;13.00;99.90;;;;;;5110434;28;20246;-72
2022/09/11 04:16:01;;;;;;;8.70;7.10;;;13.10;99.90;;;;;;5108836;28;20200;-73
2022/09/11 04:18:28;;;;;;;9.20;7.67;;;13.10;99.90;;;;;;5111656;28;20557;-74
2022/09/11 04:20:55;;;;;;;8.90;7.40;;;13.10;99.90;;;;;;5108557;28;20215;-73
2022/09/11 04:23:22;;;;;;;10.17;7.67;;;13.10;99.90;;;;;;5111867;28;20230;-72
2022/09/11 04:25:49;;;;;;;8.70;6.73;;;13.10;99.90;;;;;;5110259;27;20212;-72
2022/09/11 04:28:17;;;;;;;9.50;7.27;;;13.10;99.90;;;;;;5111347;28;20558;-72
2022/09/11 04:30:43;;;;;;;9.30;7.27;;;13.10;99.90;;;;;;5111229;27;20223;-72
2022/09/11 04:33:10;;;;;;;8.30;7.33;;;13.10;99.90;;;;;;5110430;28;20200;-72
2022/09/11 04:35:38;;;;;;;8.33;6.97;;;13.10;99.90;;;;;;5110238;28;20790;-72
2022/09/11 04:38:05;;;;;;;12.47;7.80;;;13.00;99.90;;;;;;5111949;28;20534;-73
2022/09/11 04:40:32;;;;;;;10.00;7.33;;;13.00;99.90;;;;;;5111958;28;20203;-73
2022/09/11 04:42:59;;;;;;;8.23;7.40;;;13.00;99.90;;;;;;5115119;27;20211;-72
2022/09/11 04:45:32;;;;;;;8.13;7.23;;;13.00;99.90;;;;;;5111215;28;20211;-72
2022/09/11 04:47:59;;;;;;;9.57;7.33;;;13.00;99.90;;;;;;5109551;28;20246;-72
2022/09/11 04:50:27;;;;;;;8.80;7.20;;;13.00;99.90;;;;;;5102566;28;20204;-72
2022/09/11 04:52:54;;;;;;;8.10;7.03;;;13.00;99.90;;;;;;5098406;28;20234;-73
2022/09/11 04:55:21;;;;;;;8.20;6.43;;;13.00;99.90;;;;;;5109446;28;20196;-72
2022/09/11 04:57:48;;;;;;;9.13;7.30;;;13.00;99.90;;;;;;5116156;27;20215;-73
2022/09/11 05:00:16;;;;;;;7.57;6.30;;;13.00;99.90;;;;;;5115188;27;20208;-71
2022/09/11 05:02:44;;;;;;;7.83;6.90;;;13.00;99.90;;;;;;5110089;28;20295;-73
2022/09/11 05:05:11;;;;;;;8.50;6.50;;;13.00;99.90;;;;;;5108193;28;20216;-73
2022/09/11 05:07:38;;;;;;;8.50;7.03;;;13.00;99.90;;;;;;5110255;28;20227;-73
2022/09/11 05:10:06;;;;;;;7.13;6.40;;;13.00;99.90;;;;;;5106702;28;20212;-72
2022/09/11 05:12:33;;;;;;;6.37;5.70;;;13.00;99.90;;;;;;5105761;28;20227;-72
2022/09/11 05:15:00;;;;;;;6.87;5.87;;;13.00;99.90;;;;;;5114275;27;20204;-72
2022/09/11 05:17:27;;;;;;;5.83;5.17;;;13.00;99.90;;;;;;5104211;28;20220;-72
2022/09/11 05:19:55;;;;;;;6.80;5.27;;;13.00;99.90;;;;;;5103908;28;20571;-69
2022/09/11 05:22:22;;;;;;;5.93;5.33;;;12.90;99.90;;;;;;5103334;28;20273;-68
2022/09/11 05:24:49;;;;;;;5.73;5.07;;;12.90;99.90;;;;;;5110723;28;20230;-69
2022/09/11 05:27:15;;;;;;;5.60;4.53;;;12.90;99.90;;;;;;5109001;28;20274;-69
2022/09/11 05:29:42;;;;;;;7.83;5.03;;;12.90;99.90;;;;;;5109120;28;20211;-69
2022/09/11 05:32:09;;;;;;;6.73;5.03;;;12.80;99.90;;;;;;5108542;28;20680;-67
2022/09/11 05:34:36;;;;;;;5.67;4.97;;;12.80;99.90;;;;;;5110237;28;20285;-69
2022/09/11 05:37:04;;;;;;;6.23;4.77;;;12.80;99.90;;;;;;5108940;28;20687;-69
2022/09/11 05:39:31;;;;;;;5.63;5.03;;;12.90;99.90;;;;;;5108110;28;20553;-69
2022/09/11 05:41:58;;;;;;;5.83;5.23;;;12.90;99.90;;;;;;5108229;28;20200;-70
2022/09/11 05:44:25;;;;;;;6.40;5.30;;;12.90;99.90;;;;;;5111305;28;20204;-70
2022/09/11 05:46:52;;;;;;;5.60;5.00;;;12.90;99.90;;;;;;5108619;28;20630;-70
2022/09/11 05:49:20;;;;;;;6.90;5.40;;;12.90;99.90;;;;;;5113315;27;20226;-69
2022/09/11 05:51:47;;;;;;;6.53;5.47;;;12.90;99.90;;;;;;5112100;27;20220;-70
2022/09/11 05:54:15;;;;;;;6.70;5.70;;;12.90;99.90;;;;;;5110858;28;20202;-70
2022/09/11 05:56:42;;;;;;;6.27;5.03;;;12.90;99.90;;;;;;5108293;28;20207;-70
2022/09/11 05:59:14;;;;;;;6.13;5.10;;;12.90;99.90;;;;;;5112108;28;20219;-69
2022/09/11 06:01:42;;;;;;;6.20;4.70;;;12.80;99.90;;;;;;5112012;28;20203;-69
2022/09/11 06:04:11;;;;;;;6.23;5.00;;;12.80;99.90;;;;;;5105142;28;20219;-69
2022/09/11 06:06:38;;;;;;;6.30;5.70;;;12.80;99.90;;;;;;5111544;27;20726;-68
2022/09/11 06:09:05;;;;;;;6.50;5.43;;;12.80;99.90;;;;;;5110470;28;20200;-68
2022/09/11 06:11:34;;;;;;;7.47;5.57;;;12.80;99.90;;;;;;5106372;28;20235;-68
2022/09/11 06:14:01;;;;;;;6.23;5.20;;;12.80;99.90;;;;;;5110659;28;20208;-70
2022/09/11 06:16:30;;;;;;;7.30;5.40;;;12.80;99.90;;;;;;5108460;28;20208;-71
2022/09/11 06:18:57;;;;;;;5.57;5.00;;;12.70;99.90;;;;;;5110194;28;20226;-68
2022/09/11 06:21:26;;;;;;;9.17;6.10;;;12.70;99.90;;;;;;5105928;28;20203;-72
2022/09/11 06:23:53;;;;;;;7.50;5.10;;;12.80;99.90;;;;;;5104590;28;20208;-74
2022/09/11 06:26:22;;;;;;;7.30;5.07;;;12.80;99.90;;;;;;5110227;28;20196;-73
2022/09/11 06:28:51;;;;;;;7.40;5.70;;;12.80;99.90;;;;;;5128797;28;20203;-69
2022/09/11 06:31:19;;;;;;;6.60;5.37;;;12.80;99.90;;;;;;5108948;28;20240;-73
2022/09/11 06:33:47;;;;;;;7.77;5.27;;;12.70;99.90;;;;;;5106182;28;20212;-74
2022/09/11 06:36:16;;;;;;;11.80;6.00;;;12.80;99.90;;;;;;5106180;28;20288;-69
2022/09/11 06:38:44;;;;;;;6.97;6.10;;;12.90;99.90;;;;;;5105652;28;20212;-68
2022/09/11 06:41:13;;;;;;;7.20;5.40;;;12.80;99.90;;;;;;5106241;28;20231;-69
2022/09/11 06:43:40;;;;;;;8.30;5.97;;;12.80;99.90;;;;;;5096230;28;20290;-68
2022/09/11 06:46:11;;;;;;;7.80;6.50;;;12.80;99.90;;;;;;5098739;28;20572;-68
2022/09/11 06:48:38;;;;;;;8.67;6.43;;;12.80;99.90;;;;;;5104184;28;20200;-67
2022/09/11 06:51:07;;;;;;;9.13;5.93;;;12.90;99.90;;;;;;5112346;27;20203;-68
2022/09/11 06:53:34;;;;;;;9.13;6.30;;;12.90;99.90;;;;;;5111197;28;20200;-70
2022/09/11 06:56:01;;;;;;;8.30;6.10;;;12.90;99.90;;;;;;5122056;27;20669;-71
2022/09/11 06:58:29;;;;;;;7.17;5.67;;;12.90;99.90;;;;;;5112614;27;20208;-72
2022/09/11 07:00:58;;;;;;;9.13;5.67;;;13.00;99.90;;;;;;5109929;27;20207;-71
2022/09/11 07:03:26;;;;;;;8.20;5.53;;;12.90;99.90;;;;;;5109226;28;20200;-70
2022/09/11 07:05:53;;;;;;;6.67;5.37;;;12.90;99.90;;;;;;5110094;27;20235;-72
2022/09/11 07:08:20;;;;;;;8.50;5.53;;;13.00;99.90;;;;;;5127640;27;20210;-72
2022/09/11 07:10:47;;;;;;;10.40;6.20;;;13.00;99.90;;;;;;5132952;27;20207;-71
2022/09/11 07:13:14;;;;;;;9.30;5.80;;;13.00;99.90;;;;;;5119732;27;20218;-70
2022/09/11 07:15:41;;;;;;;6.50;5.50;;;13.00;99.90;;;;;;5111821;28;20208;-69
2022/09/11 07:18:08;;;;;;;9.83;6.37;;;13.00;99.90;;;;;;5106942;27;20200;-70
2022/09/11 07:20:40;;;;;;;6.97;5.77;;;13.00;99.90;;;;;;5111255;27;20398;-70
2022/09/11 07:23:07;;;;;;;10.53;6.80;;;13.10;99.90;;;;;;5114949;27;20235;-76
2022/09/11 07:25:37;;;;;;;6.93;5.63;;;13.00;99.90;;;;;;5119746;27;20204;-70
2022/09/11 07:28:04;;;;;;;8.37;6.20;;;13.00;99.90;;;;;;5121001;27;20287;-71
2022/09/11 07:30:31;;;;;;;6.83;5.40;;;13.10;99.90;;;;;;5113177;28;20204;-70
2022/09/11 07:32:58;;;;;;;6.97;5.73;;;13.00;99.90;;;;;;5113343;27;20313;-74
2022/09/11 07:35:24;;;;;;;8.27;6.13;;;13.00;99.90;;;;;;5124104;27;20653;-71
2022/09/11 07:37:53;;;;;;;10.73;5.87;;;13.00;99.90;;;;;;5126215;27;20212;-71
2022/09/11 07:40:20;;;;;;;10.57;6.70;;;13.00;99.90;;;;;;5111318;27;20188;-73
2022/09/11 07:42:46;;;;;;;7.93;5.87;;;13.00;99.90;;;;;;5118228;27;20199;-72
2022/09/11 07:45:13;;;;;;;7.33;5.77;;;13.00;99.90;;;;;;5128399;27;20609;-71
2022/09/11 07:47:40;;;;;;;7.20;5.37;;;13.00;99.90;;;;;;5116648;27;20204;-71
2022/09/11 07:50:08;;;;;;;9.33;5.90;;;13.00;99.90;;;;;;5122569;27;20212;-70
2022/09/11 07:52:36;;;;;;;8.40;6.33;;;13.10;99.90;;;;;;5114129;27;20216;-71
2022/09/11 07:55:05;;;;;;;9.20;6.80;;;13.10;99.90;;;;;;5112054;27;20664;-71
2022/09/11 07:57:32;;;;;;;7.77;5.83;;;13.10;99.90;;;;;;5108015;28;20695;-71
2022/09/11 07:59:59;;;;;;;9.90;6.03;;;13.10;99.90;;;;;;5117841;27;20207;-72
2022/09/11 08:02:26;;;;;;;7.60;5.73;;;13.10;99.90;;;;;;5118403;27;20223;-71
2022/09/11 08:04:53;;;;;;;9.17;6.47;;;13.10;99.90;;;;;;5111203;27;20291;-71
2022/09/11 08:07:22;;;;;;;8.10;6.00;;;13.10;99.90;;;;;;5113070;27;20576;-72
2022/09/11 08:09:49;;;;;;;10.00;6.03;;;13.10;99.90;;;;;;5115780;27;20224;-72
2022/09/11 08:12:18;;;;;;;7.73;5.60;;;13.10;99.90;;;;;;5113155;27;20219;-68
2022/09/11 08:14:45;;;;;;;7.80;5.67;;;13.10;99.90;;;;;;5126116;27;20219;-71
2022/09/11 08:17:12;;;;;;;8.37;5.80;;;13.10;99.90;;;;;;5110098;28;20208;-73
2022/09/11 08:19:39;;;;;;;7.90;5.40;;;13.10;99.90;;;;;;5108840;28;20245;-70
2022/09/11 08:22:07;;;;;;;7.47;5.73;;;13.00;99.90;;;;;;5110636;27;20223;-72
2022/09/11 08:24:34;;;;;;;7.63;5.57;;;13.00;99.90;;;;;;5115515;27;20224;-72
2022/09/11 08:27:01;;;;;;;8.60;5.87;;;13.00;99.90;;;;;;5113077;27;20272;-71
2022/09/11 08:29:29;;;;;;;8.53;5.63;;;13.10;99.90;;;;;;5107015;28;20216;-74
2022/09/11 08:31:56;;;;;;;9.00;6.07;;;13.00;99.90;;;;;;5110959;27;20223;-76
2022/09/11 08:34:23;;;;;;;8.70;5.33;;;13.00;99.90;;;;;;5111296;27;20298;-74
2022/09/11 08:36:50;;;;;;;8.23;6.20;;;13.00;99.90;;;;;;5107010;27;20220;-74
2022/09/11 08:39:17;;;;;;;9.57;5.93;;;13.00;99.90;;;;;;5113606;28;20211;-71
2022/09/11 08:41:48;;;;;;;8.83;6.40;;;12.90;99.90;;;;;;5097428;28;20227;-69
2022/09/11 08:44:21;;;;;;;10.35;7.30;;;12.90;99.90;;;;;;5109611;28;20569;-67
2022/09/11 08:46:54;;;;;;;8.43;6.40;;;12.90;99.90;;;;;;5110365;27;20206;-68
2022/09/11 08:49:24;;;;;;;11.13;6.17;;;12.90;99.90;;;;;;5120723;27;20280;-69
2022/09/11 08:51:53;;;;;;;9.02;6.40;;;12.90;99.90;;;;;;5120913;27;20437;-68
2022/09/11 08:54:27;;;;;;;12.53;6.80;;;12.90;99.90;;;;;;5117952;27;20214;-69
2022/09/11 08:57:05;;;;;;;11.47;6.40;;;12.90;99.90;;;;;;5113802;27;20295;-67
2022/09/11 08:59:49;;;;;;;9.47;6.37;;;12.90;99.90;;;;;;5103835;28;20624;-69
2022/09/11 09:02:32;;;;;;;11.60;6.50;;;12.80;99.90;;;;;;5106083;27;20200;-70
2022/09/11 09:05:19;;;;;;;14.20;6.57;;;12.80;99.90;;;;;;5096669;28;20197;-70
2022/09/11 09:08:01;;;;;;;8.70;5.27;;;12.70;99.90;;;;;;5110553;27;20671;-74
2022/09/11 09:10:41;;;;;;;13.83;7.27;;;12.70;99.90;;;;;;5116862;27;20245;-75
2022/09/11 09:13:27;;;;;;;11.27;6.43;;;12.70;99.90;;;;;;5114879;27;20223;-74
2022/09/11 09:16:01;;;;;;;7.93;4.97;;;12.70;99.90;;;;;;5111529;28;20344;-73
2022/09/11 09:18:34;;;;;;;9.60;5.43;;;12.70;99.90;;;;;;5108618;27;20496;-74
2022/09/11 09:21:04;;;;;;;7.30;5.00;;;12.60;99.90;;;;;;5115798;27;20211;-72
2022/09/11 09:23:39;;;;;;;10.10;5.27;;;12.60;99.90;;;;;;5113544;27;20226;-74
2022/09/11 09:26:14;;;;;;;6.50;4.20;;;12.50;99.90;;;;;;5120078;27;20203;-72
2022/09/11 09:28:45;;;;;;;7.17;4.87;;;12.50;99.90;;;;;;5114683;27;20198;-73
2022/09/11 09:31:15;;;;;;;7.43;4.10;;;12.50;99.90;;;;;;5106025;27;20256;-74
2022/09/11 09:33:49;;;;;;;7.37;4.80;;;12.40;99.90;;;;;;5109894;28;20215;-75
2022/09/11 09:36:19;;;;;;;5.33;3.90;;;12.40;99.90;;;;;;5108513;28;20690;-73
2022/09/11 09:38:47;;;;;;;7.57;4.33;;;12.40;99.90;;;;;;5108570;28;20204;-73
2022/09/11 09:41:42;;;;;;;4.43;3.53;;;12.40;99.90;;;;;;5107599;28;20203;-72
2022/09/11 09:44:15;;;;;;;7.70;4.13;;;12.40;99.90;;;;;;5108579;28;20199;-73
2022/09/11 09:46:45;;;;;;;5.63;4.10;;;12.40;99.90;;;;;;5109785;27;20710;-73
2022/09/11 09:49:22;;;;;;;6.97;3.87;;;12.40;99.90;;;;;;5106015;27;20212;-72
2022/09/11 09:51:50;;;;;;;5.00;3.93;;;12.50;99.90;;;;;;5104454;27;20339;-72
2022/09/11 09:54:20;;;;;;;5.93;3.87;;;12.50;99.90;;;;;;5113265;27;20204;-74
2022/09/11 09:57:01;;;;;;;6.20;3.77;;;12.50;99.90;;;;;;5109930;27;20282;-71
2022/09/11 09:59:34;;;;;;;6.30;3.97;;;12.50;99.90;;;;;;5113018;27;20656;-72
2022/09/11 10:02:01;;;;;;;5.23;3.03;;;12.50;99.90;;;;;;5115883;28;20288;-71
2022/09/11 10:04:30;;;;;;;6.50;3.13;;;12.50;99.90;;;;;;5111693;27;20559;-73
2022/09/11 10:07:09;;;;;;;3.93;2.97;;;12.50;99.90;;;;;;5103155;28;20292;-73
2022/09/11 10:09:36;;;;;;;4.80;4.03;;;12.60;99.90;;;;;;5109238;28;20264;-73
2022/09/11 10:12:07;;;;;;;6.37;3.47;;;12.60;99.90;;;;;;5108054;28;20210;-74
2022/09/11 10:14:44;;;;;;;5.63;2.90;;;12.60;99.90;;;;;;5109436;28;20196;-74
2022/09/11 10:17:20;;;;;;;3.67;2.83;;;12.70;99.90;;;;;;5101502;28;20211;-75
2022/09/11 10:19:49;;;;;;;4.43;2.90;;;12.70;99.90;;;;;;5117948;28;20204;-75
2022/09/11 10:22:29;;;;;;;3.97;2.83;;;12.80;99.90;;;;;;5100652;28;20224;-74
2022/09/11 10:25:14;;;;;;;4.40;2.93;;;12.90;99.90;;;;;;5107866;27;20211;-75
2022/09/11 10:27:50;;;;;;;5.33;3.33;;;12.90;99.90;;;;;;5106663;27;20298;-76
2022/09/11 10:30:27;;;;;;;6.47;3.50;;;13.00;99.90;;;;;;5108202;27;20649;-75
2022/09/11 10:32:55;;;;;;;5.27;3.87;;;13.00;99.90;;;;;;5115952;27;20231;-75
2022/09/11 10:35:26;;;;;;;4.80;3.70;;;13.10;99.90;;;;;;5119790;27;20211;-75
2022/09/11 10:38:12;;;;;;;3.87;3.07;;;13.00;99.90;;;;;;5115425;28;20697;-75
2022/09/11 10:40:40;;;;;;;6.23;3.27;;;13.00;99.90;;;;;;5124152;27;20209;-74
2022/09/11 10:43:22;;;;;;;3.53;3.20;;;13.00;99.90;;;;;;5115120;27;20199;-75
2022/09/11 10:46:05;;;;;;;5.27;3.40;;;13.10;99.90;;;;;;5107720;27;20218;-75
2022/09/11 10:48:32;;;;;;;8.10;4.57;;;13.20;99.90;;;;;;5112866;27;20211;-71
2022/09/11 10:51:11;;;;;;;5.37;3.27;;;13.30;99.90;;;;;;5110658;27;20200;-74
2022/09/11 10:53:47;;;;;;;5.57;3.87;;;13.40;99.90;;;;;;5105154;28;20203;-74
2022/09/11 10:56:15;;;;;;;8.30;3.97;;;13.40;99.90;;;;;;5105305;27;20195;-73
2022/09/11 10:58:46;;;;;;;8.97;3.80;;;13.70;99.90;;;;;;5118617;27;20211;-72
2022/09/11 11:01:13;;;;;;;4.30;3.60;;;13.80;99.90;;;;;;5119910;27;20212;-74
2022/09/11 11:03:40;;;;;;;7.07;4.10;;;14.00;99.90;;;;;;5111888;27;20204;-74
2022/09/11 11:06:24;;;;;;;8.43;3.87;;;14.20;99.90;;;;;;5113396;27;20208;-74
2022/09/11 11:09:14;;;;;;;6.03;3.53;;;14.40;99.90;;;;;;5116732;27;20207;-73
2022/09/11 11:11:54;;;;;;;5.13;3.90;;;14.60;99.90;;;;;;5122512;27;20279;-73
2022/09/11 11:14:53;;;;;;;6.97;4.00;;;14.80;99.90;;;;;;5128402;27;20210;-72
2022/09/11 11:17:28;;;;;;;5.73;3.70;;;14.90;99.90;;;;;;5111422;28;20204;-73
2022/09/11 11:20:21;;;;;;;6.80;4.13;;;15.10;99.90;;;;;;5102539;28;20196;-72
2022/09/11 11:23:23;;;;;;;7.20;4.37;;;15.30;99.90;;;;;;5109314;28;20645;-73
2022/09/11 11:25:59;;;;;;;5.27;4.03;;;15.40;99.90;;;;;;5099884;28;20211;-73
2022/09/11 11:28:47;;;;;;;11.27;4.77;;;15.50;99.90;;;;;;5118185;27;20210;-73
2022/09/11 11:31:33;;;;;;;5.57;4.47;;;15.50;99.90;;;;;;5111127;28;20229;-69
2022/09/11 11:34:16;;;;;;;5.68;4.22;;;15.60;99.90;;;;;;5114083;28;20228;-71
2022/09/11 11:36:46;;;;;;;8.47;4.50;;;15.60;99.90;;;;;;5105039;28;20196;-71
2022/09/11 11:39:23;;;;;;;6.20;4.40;;;15.60;99.90;;;;;;5109835;28;20212;-69
2022/09/11 11:42:00;;;;;;;7.75;4.40;;;15.50;99.90;;;;;;5102436;27;20211;-70
2022/09/11 11:44:31;;;;;;;5.93;4.30;;;15.50;99.90;;;;;;5112291;28;20561;-71
2022/09/11 11:47:01;;;;;;;7.10;4.87;;;15.40;99.90;;;;;;5111798;28;20659;-72
2022/09/11 11:49:39;;;;;;;5.22;4.25;;;15.40;99.90;;;;;;5107481;28;20703;-72
2022/09/11 11:52:17;;;;;;;6.97;4.83;;;15.40;99.90;;;;;;5101592;28;20203;-71
2022/09/11 11:54:51;;;;;;;8.40;4.85;;;15.40;99.90;;;;;;5110415;28;20234;-71
2022/09/11 11:57:22;;;;;;;5.80;4.00;;;15.40;99.90;;;;;;5111030;28;20203;-70
2022/09/11 11:59:58;;;;;;;7.63;4.70;;;15.50;99.90;;;;;;5099502;28;20315;-70
2022/09/11 12:02:30;;;;;;;6.72;4.53;;;15.50;99.90;;;;;;5105738;28;20282;-70
2022/09/11 12:05:01;;;;;;;7.97;5.17;;;15.60;99.90;;;;;;5113031;28;20203;-69
2022/09/11 12:07:33;;;;;;;8.68;4.60;;;15.80;99.90;;;;;;5112426;28;20712;-71
2022/09/11 12:10:02;;;;;;;5.53;4.40;;;15.90;99.90;;;;;;5111215;28;20212;-70
2022/09/11 12:12:33;;;;;;;8.00;4.70;;;16.00;99.90;;;;;;5101384;28;20207;-70
2022/09/11 12:15:05;;;;;;;8.17;4.63;;;16.10;99.90;;;;;;5107401;27;20252;-69
2022/09/11 12:17:34;;;;;;;12.63;4.80;;;16.20;99.90;;;;;;5107584;27;20207;-70
2022/09/11 12:20:30;;;;;;;12.38;6.50;;;16.30;99.90;;;;;;5106151;27;20247;-68
2022/09/11 12:22:57;;;;;;;8.13;4.97;;;16.30;99.90;;;;;;5098113;27;20224;-66
2022/09/11 12:25:52;;;;;;;9.45;4.53;;;16.40;99.90;;;;;;5105611;27;20211;-70
2022/09/11 12:28:24;;;;;;;7.38;4.10;;;16.40;99.90;;;;;;5119781;27;20199;-68
2022/09/11 12:31:00;;;;;;;10.23;5.13;;;16.50;99.90;;;;;;5120135;27;20340;-67
2022/09/11 12:33:55;;;;;;;5.33;4.20;;;16.50;99.90;;;;;;5110701;28;20297;-70
2022/09/11 12:36:43;;;;;;;9.70;5.53;;;16.50;99.90;;;;;;5107003;28;20732;-70
2022/09/11 12:39:26;;;;;;;8.27;5.38;;;16.70;99.90;;;;;;5111589;27;20204;-69
2022/09/11 12:42:32;;;;;;;6.50;4.50;;;16.90;99.90;;;;;;5118089;27;20222;-72
2022/09/11 12:44:59;;;;;;;6.93;5.03;;;17.00;99.90;;;;;;5108095;28;20209;-72
2022/09/11 12:47:28;;;;;;;5.07;3.35;;;17.10;99.90;;;;;;5111882;27;20214;-71
2022/09/11 12:50:06;;;;;;;7.10;4.45;;;17.20;99.90;;;;;;5113565;27;20226;-71
2022/09/11 12:52:40;;;;;;;8.75;5.03;;;17.40;99.90;;;;;;5107239;28;20210;-71
2022/09/11 12:55:26;;;;;;;7.40;4.80;;;17.50;99.90;;;;;;5109685;27;20447;-70
2022/09/11 12:57:55;;;;;;;7.75;4.95;;;17.70;99.90;;;;;;5108501;28;20210;-70
2022/09/11 13:00:32;;;;;;;7.97;4.28;;;17.90;99.90;;;;;;5109784;28;20559;-69
2022/09/11 13:02:59;;;;;;;7.30;3.65;;;18.10;99.90;;;;;;5102089;28;20298;-71
2022/09/11 13:05:33;;;;;;;10.35;5.80;;;18.20;99.90;;;;;;5102000;28;20978;-71
2022/09/11 13:08:03;;;;;;;6.15;4.30;;;18.20;99.90;;;;;;5110042;27;20454;-69